Time;durP1;ratioP1;P1;durP2;ratioP2;P2;SDS_P1;SDS_P2;PMS_P1;PMS_P2;Temp;Humidity;BMP_temperature;BMP_pressure;BME280_temperature;BME280_humidity;BME280_pressure;Samples;Min_cycle;Max_cycle;Signal;HPM_P1;HPM_P2
2023/03/06 00:01:05;;;;;;;8.68;4.68;;;8.60;47.50;;;;;;5054934;28;20040;-74
2023/03/06 00:03:32;;;;;;;9.65;5.15;;;8.60;47.50;;;;;;5055176;28;20036;-73
2023/03/06 00:05:59;;;;;;;11.52;5.22;;;8.60;47.40;;;;;;5047645;28;20029;-73
2023/03/06 00:08:27;;;;;;;11.13;5.95;;;8.60;47.40;;;;;;5059301;28;20501;-74
2023/03/06 00:10:55;;;;;;;10.65;4.95;;;8.60;47.50;;;;;;5074970;28;20386;-73
2023/03/06 00:13:21;;;;;;;9.75;4.70;;;8.60;47.60;;;;;;5074966;28;20094;-74
2023/03/06 00:15:48;;;;;;;11.55;5.60;;;8.60;47.60;;;;;;5074971;28;20473;-73
2023/03/06 00:18:14;;;;;;;10.40;5.65;;;8.60;47.70;;;;;;5056921;28;20085;-73
2023/03/06 00:20:43;;;;;;;12.38;6.30;;;8.60;47.80;;;;;;5074901;28;20032;-73
2023/03/06 00:23:10;;;;;;;10.57;5.57;;;8.60;47.90;;;;;;5074687;28;20085;-73
2023/03/06 00:25:37;;;;;;;7.55;4.38;;;8.60;47.90;;;;;;5060122;28;20036;-73
2023/03/06 00:28:05;;;;;;;12.05;5.78;;;8.60;47.90;;;;;;5054384;28;20028;-73
2023/03/06 00:30:31;;;;;;;14.75;6.15;;;8.60;48.00;;;;;;5054341;28;20037;-73
2023/03/06 00:32:57;;;;;;;11.30;5.50;;;8.60;48.10;;;;;;5036635;28;20031;-73
2023/03/06 00:35:23;;;;;;;11.95;6.07;;;8.60;48.10;;;;;;5050295;28;20029;-73
2023/03/06 00:37:48;;;;;;;14.68;5.55;;;8.60;48.20;;;;;;5053894;28;20474;-73
2023/03/06 00:40:17;;;;;;;9.77;4.78;;;8.60;48.30;;;;;;5054130;28;20075;-73
2023/03/06 00:42:44;;;;;;;12.02;5.40;;;8.60;48.40;;;;;;5053871;28;20032;-73
2023/03/06 00:45:11;;;;;;;10.68;5.10;;;8.50;48.30;;;;;;5053759;28;20028;-73
2023/03/06 00:47:37;;;;;;;9.90;5.18;;;8.50;48.40;;;;;;5053473;28;20032;-73
2023/03/06 00:50:03;;;;;;;11.55;5.85;;;8.50;48.70;;;;;;5053671;28;20013;-73
2023/03/06 00:52:29;;;;;;;9.93;5.53;;;8.50;48.90;;;;;;5053756;28;20025;-73
2023/03/06 00:54:55;;;;;;;12.88;6.18;;;8.50;49.60;;;;;;5053735;28;20033;-74
2023/03/06 00:57:21;;;;;;;11.32;5.80;;;8.50;48.90;;;;;;5034924;28;20028;-73
2023/03/06 00:59:47;;;;;;;10.77;5.88;;;8.50;49.10;;;;;;5053720;28;20024;-73
2023/03/06 01:02:13;;;;;;;11.10;5.65;;;8.40;49.00;;;;;;5053614;28;20084;-73
2023/03/06 01:04:39;;;;;;;12.65;6.05;;;8.40;49.10;;;;;;5048596;28;20567;-73
2023/03/06 01:07:05;;;;;;;10.15;5.53;;;8.40;49.10;;;;;;5043779;28;20033;-73
2023/03/06 01:09:31;;;;;;;11.02;5.78;;;8.40;49.10;;;;;;5072076;28;20041;-73
2023/03/06 01:11:57;;;;;;;9.60;5.70;;;8.40;49.10;;;;;;5058584;28;20029;-73
2023/03/06 01:14:23;;;;;;;12.52;5.57;;;8.40;49.00;;;;;;5074040;28;20024;-73
2023/03/06 01:16:49;;;;;;;13.93;7.38;;;8.40;49.00;;;;;;5063626;28;20120;-73
2023/03/06 01:19:15;;;;;;;9.50;4.88;;;8.30;49.10;;;;;;5068191;28;20131;-74
2023/03/06 01:21:40;;;;;;;8.93;4.78;;;8.40;49.10;;;;;;5062457;28;20029;-73
2023/03/06 01:24:06;;;;;;;9.60;5.25;;;8.40;49.10;;;;;;5073244;28;20020;-73
2023/03/06 01:26:33;;;;;;;11.63;5.88;;;8.40;49.10;;;;;;5071775;28;20075;-73
2023/03/06 01:28:59;;;;;;;12.15;6.28;;;8.40;49.10;;;;;;5058379;28;20019;-73
2023/03/06 01:31:25;;;;;;;13.23;6.22;;;8.30;49.10;;;;;;5064552;28;20060;-73
2023/03/06 01:33:51;;;;;;;9.68;5.03;;;8.30;49.00;;;;;;5065034;28;20036;-73
2023/03/06 01:36:17;;;;;;;11.40;6.28;;;8.30;49.00;;;;;;5072938;28;20397;-73
2023/03/06 01:38:43;;;;;;;9.77;5.82;;;8.30;49.10;;;;;;5056451;28;20025;-73
2023/03/06 01:41:09;;;;;;;10.15;6.07;;;8.30;49.10;;;;;;5072883;28;20029;-73
2023/03/06 01:43:41;;;;;;;11.63;5.13;;;8.30;49.20;;;;;;5062877;28;20021;-73
2023/03/06 01:46:28;;;;;;;12.60;6.47;;;8.30;49.20;;;;;;5067542;28;20067;-72
2023/03/06 01:49:01;;;;;;;12.68;5.25;;;8.30;49.40;;;;;;5057325;28;20021;-73
2023/03/06 01:51:36;;;;;;;12.57;6.17;;;8.30;49.40;;;;;;5064043;28;20021;-73
2023/03/06 01:54:07;;;;;;;10.20;5.65;;;8.20;49.50;;;;;;5066911;28;20259;-73
2023/03/06 01:56:34;;;;;;;11.20;5.85;;;8.20;49.60;;;;;;5056417;28;20512;-73
2023/03/06 01:59:01;;;;;;;9.98;5.70;;;8.20;49.60;;;;;;5072845;28;20421;-73
2023/03/06 02:01:27;;;;;;;11.05;5.22;;;8.20;49.60;;;;;;5062475;28;20386;-73
2023/03/06 02:03:54;;;;;;;9.23;5.30;;;8.20;49.70;;;;;;5064967;28;20028;-74
2023/03/06 02:06:20;;;;;;;9.98;5.30;;;8.20;49.70;;;;;;5056392;28;20378;-73
2023/03/06 02:08:51;;;;;;;10.60;5.47;;;8.20;49.50;;;;;;5072087;28;20112;-73
2023/03/06 02:11:23;;;;;;;9.68;5.82;;;8.20;49.30;;;;;;5064530;28;20063;-73
2023/03/06 02:13:52;;;;;;;9.65;5.13;;;8.20;49.20;;;;;;5064852;28;20025;-74
2023/03/06 02:16:23;;;;;;;10.65;5.20;;;8.20;49.20;;;;;;5069975;28;20029;-73
2023/03/06 02:18:49;;;;;;;10.30;5.22;;;8.20;49.30;;;;;;5060335;28;20027;-73
2023/03/06 02:21:23;;;;;;;8.80;5.20;;;8.20;49.40;;;;;;5069338;28;20478;-73
2023/03/06 02:24:12;;;;;;;11.50;5.50;;;8.20;49.40;;;;;;5068791;28;20020;-73
2023/03/06 02:26:41;;;;;;;9.48;4.60;;;8.10;49.40;;;;;;5059951;28;20736;-73
2023/03/06 02:29:08;;;;;;;9.88;5.20;;;8.10;49.40;;;;;;5070374;28;20082;-73
2023/03/06 02:31:34;;;;;;;10.43;4.90;;;8.10;49.30;;;;;;5066355;28;20023;-73
2023/03/06 02:34:27;;;;;;;12.43;5.00;;;8.10;49.30;;;;;;5075989;28;20039;-73
2023/03/06 02:37:03;;;;;;;10.68;5.15;;;8.10;49.90;;;;;;5076553;28;20029;-73
2023/03/06 02:39:32;;;;;;;8.88;4.57;;;8.10;49.30;;;;;;5076988;28;20024;-73
2023/03/06 02:41:59;;;;;;;10.15;4.65;;;8.00;49.20;;;;;;5076588;28;20064;-73
2023/03/06 02:44:27;;;;;;;9.25;4.88;;;8.00;49.30;;;;;;5076618;28;20539;-73
2023/03/06 02:46:53;;;;;;;11.10;5.10;;;8.00;49.30;;;;;;5076366;28;20025;-73
2023/03/06 02:49:18;;;;;;;8.63;4.38;;;8.00;49.30;;;;;;5076401;28;20036;-73
2023/03/06 02:51:44;;;;;;;8.20;4.45;;;8.00;49.30;;;;;;5076422;28;20028;-74
2023/03/06 02:54:10;;;;;;;9.73;4.50;;;8.00;49.30;;;;;;5076588;28;20029;-73
2023/03/06 02:56:36;;;;;;;10.13;4.32;;;8.00;49.30;;;;;;5076330;28;20044;-73
2023/03/06 02:59:02;;;;;;;10.95;4.80;;;7.90;49.30;;;;;;5076038;28;20537;-73
2023/03/06 03:01:28;;;;;;;7.72;4.32;;;8.00;49.40;;;;;;5075930;28;20032;-73
2023/03/06 03:03:54;;;;;;;10.65;4.95;;;7.90;49.30;;;;;;5075943;28;20066;-74
2023/03/06 03:06:20;;;;;;;8.43;5.05;;;7.90;49.30;;;;;;5076215;28;20025;-73
2023/03/06 03:08:46;;;;;;;8.27;4.90;;;7.90;49.30;;;;;;5075706;28;20051;-73
2023/03/06 03:11:11;;;;;;;9.48;4.45;;;7.90;49.40;;;;;;5057857;28;20024;-73
2023/03/06 03:13:37;;;;;;;16.30;6.03;;;7.90;49.40;;;;;;5075873;28;20029;-73
2023/03/06 03:16:06;;;;;;;10.23;4.88;;;7.90;49.30;;;;;;5076455;28;20525;-73
2023/03/06 03:18:32;;;;;;;15.73;4.55;;;7.90;49.30;;;;;;5057544;28;20362;-73
2023/03/06 03:20:58;;;;;;;14.85;5.30;;;7.90;49.30;;;;;;5075240;28;20032;-73
2023/03/06 03:23:25;;;;;;;9.32;4.43;;;7.90;49.30;;;;;;5076433;28;20017;-73
2023/03/06 03:25:51;;;;;;;10.48;4.63;;;7.90;49.40;;;;;;5075855;28;20032;-73
2023/03/06 03:28:17;;;;;;;11.40;5.55;;;7.90;49.40;;;;;;5075729;28;20025;-73
2023/03/06 03:30:44;;;;;;;10.23;5.35;;;7.80;49.40;;;;;;5075763;28;20060;-73
2023/03/06 03:33:10;;;;;;;16.15;5.70;;;7.80;49.30;;;;;;5074872;28;20443;-73
2023/03/06 03:35:36;;;;;;;9.85;5.45;;;7.80;49.50;;;;;;5037346;28;20057;-73
2023/03/06 03:38:02;;;;;;;9.00;4.70;;;7.80;49.50;;;;;;5055550;28;20090;-73
2023/03/06 03:40:28;;;;;;;11.52;4.93;;;7.80;49.50;;;;;;5055396;28;20447;-73
2023/03/06 03:42:54;;;;;;;9.82;5.57;;;7.80;49.50;;;;;;5055493;28;20044;-73
2023/03/06 03:45:20;;;;;;;10.38;5.57;;;7.80;49.50;;;;;;5055171;28;20025;-73
2023/03/06 03:47:46;;;;;;;6.90;4.07;;;7.80;49.40;;;;;;5055192;28;20482;-73
2023/03/06 03:50:11;;;;;;;10.30;4.97;;;7.80;49.40;;;;;;5055158;28;20555;-73
2023/03/06 03:52:37;;;;;;;11.30;5.57;;;7.80;49.40;;;;;;5055445;28;20063;-73
2023/03/06 03:55:04;;;;;;;8.90;4.72;;;7.80;49.40;;;;;;5037252;28;20020;-73
2023/03/06 03:57:30;;;;;;;12.18;4.63;;;7.80;49.30;;;;;;5037087;28;20029;-73
2023/03/06 03:59:56;;;;;;;9.98;5.20;;;7.80;49.30;;;;;;5055490;28;20033;-73
2023/03/06 04:02:22;;;;;;;10.93;5.15;;;7.80;49.20;;;;;;5054832;28;20036;-73
2023/03/06 04:04:48;;;;;;;15.82;5.80;;;7.80;49.10;;;;;;5071110;28;20070;-73
2023/03/06 04:07:14;;;;;;;9.50;5.00;;;7.80;49.10;;;;;;5074687;28;20024;-73
2023/03/06 04:09:40;;;;;;;12.35;6.05;;;7.80;49.10;;;;;;5075228;28;20141;-73
2023/03/06 04:12:06;;;;;;;10.40;5.57;;;7.80;49.20;;;;;;5074928;28;20489;-73
2023/03/06 04:14:32;;;;;;;9.45;4.93;;;7.80;49.20;;;;;;5074802;28;20024;-73
2023/03/06 04:16:58;;;;;;;13.25;4.80;;;7.80;49.20;;;;;;5075018;28;20462;-73
2023/03/06 04:19:24;;;;;;;8.88;4.75;;;7.80;49.20;;;;;;5074413;28;20025;-73
2023/03/06 04:21:50;;;;;;;10.15;5.05;;;7.80;49.20;;;;;;5056526;28;20036;-74
2023/03/06 04:24:15;;;;;;;12.13;5.78;;;7.90;49.20;;;;;;5074848;28;20077;-73
2023/03/06 04:26:41;;;;;;;14.38;6.05;;;7.80;49.20;;;;;;5074584;28;20113;-73
2023/03/06 04:29:07;;;;;;;10.93;5.55;;;7.80;49.20;;;;;;5056477;28;20032;-73
2023/03/06 04:31:33;;;;;;;9.25;5.15;;;7.90;49.20;;;;;;5074122;28;20024;-73
2023/03/06 04:33:59;;;;;;;10.23;5.30;;;7.90;49.20;;;;;;5064502;28;20382;-73
2023/03/06 04:36:33;;;;;;;11.95;5.95;;;7.90;49.30;;;;;;5054293;28;20032;-73
2023/03/06 04:39:02;;;;;;;9.90;5.70;;;7.80;49.20;;;;;;5054353;28;20032;-73
2023/03/06 04:41:27;;;;;;;13.52;6.40;;;7.80;49.20;;;;;;5036565;28;20108;-73
2023/03/06 04:43:53;;;;;;;14.15;5.57;;;7.80;49.30;;;;;;5054064;28;20462;-73
2023/03/06 04:46:19;;;;;;;12.43;6.40;;;7.80;49.30;;;;;;5036460;28;20036;-73
2023/03/06 04:48:45;;;;;;;13.60;5.65;;;7.80;49.20;;;;;;5054478;28;20020;-74
2023/03/06 04:51:12;;;;;;;13.10;6.40;;;7.80;49.20;;;;;;5053925;28;20029;-73
2023/03/06 04:53:38;;;;;;;13.68;5.97;;;7.70;49.10;;;;;;5053973;28;20482;-73
2023/03/06 04:56:05;;;;;;;13.60;6.32;;;7.80;49.20;;;;;;5036100;28;20079;-73
2023/03/06 04:58:30;;;;;;;16.70;6.35;;;7.80;49.20;;;;;;5036216;28;20427;-73
2023/03/06 05:00:56;;;;;;;10.88;6.15;;;7.80;49.30;;;;;;5035885;28;20052;-74
2023/03/06 05:03:22;;;;;;;14.98;6.65;;;7.80;49.30;;;;;;5060241;28;20025;-73
2023/03/06 05:05:48;;;;;;;15.35;7.45;;;7.70;49.30;;;;;;5056072;28;20472;-73
2023/03/06 05:08:15;;;;;;;13.60;7.15;;;7.70;49.40;;;;;;5073542;28;20046;-73
2023/03/06 05:10:42;;;;;;;19.02;7.78;;;7.70;49.40;;;;;;5073768;28;20025;-73
2023/03/06 05:13:08;;;;;;;14.18;6.72;;;7.70;49.50;;;;;;5073735;28;20028;-73
2023/03/06 05:15:34;;;;;;;13.13;6.13;;;7.70;49.40;;;;;;5073738;28;20025;-73
2023/03/06 05:17:59;;;;;;;14.68;7.25;;;7.70;49.40;;;;;;5073796;28;20028;-73
2023/03/06 05:20:27;;;;;;;19.23;7.25;;;7.70;49.40;;;;;;5055578;28;20032;-73
2023/03/06 05:22:54;;;;;;;16.58;7.32;;;7.70;49.40;;;;;;5055419;28;20032;-73
2023/03/06 05:25:19;;;;;;;13.52;6.15;;;7.70;49.40;;;;;;5073501;28;20035;-73
2023/03/06 05:27:45;;;;;;;11.68;6.65;;;7.70;49.40;;;;;;5074083;28;20409;-73
2023/03/06 05:30:12;;;;;;;18.02;8.13;;;7.70;49.50;;;;;;5073578;28;20470;-73
2023/03/06 05:32:38;;;;;;;14.68;6.43;;;7.70;49.50;;;;;;5072938;28;20044;-73
2023/03/06 05:35:05;;;;;;;12.40;7.10;;;7.70;49.50;;;;;;5053392;28;20402;-73
2023/03/06 05:37:31;;;;;;;13.07;6.90;;;7.70;49.60;;;;;;5053153;28;20033;-73
2023/03/06 05:39:58;;;;;;;18.15;7.40;;;7.70;49.50;;;;;;5053459;28;20029;-73
2023/03/06 05:42:23;;;;;;;13.05;6.85;;;7.70;49.40;;;;;;5026400;28;20394;-73
2023/03/06 05:44:49;;;;;;;17.20;7.43;;;7.80;49.40;;;;;;5053084;28;20028;-73
2023/03/06 05:47:15;;;;;;;14.00;7.45;;;7.70;49.30;;;;;;5052886;28;20388;-73
2023/03/06 05:49:41;;;;;;;15.32;6.88;;;7.70;49.40;;;;;;5053068;28;20024;-73
2023/03/06 05:52:07;;;;;;;12.90;7.55;;;7.70;49.40;;;;;;5053011;28;20040;-73
2023/03/06 05:54:35;;;;;;;15.52;7.80;;;7.70;49.40;;;;;;5053305;28;20478;-73
2023/03/06 05:57:03;;;;;;;15.07;8.02;;;7.80;49.50;;;;;;5052972;28;20079;-73
2023/03/06 05:59:28;;;;;;;19.05;7.35;;;7.80;49.50;;;;;;5036807;28;20040;-73
2023/03/06 06:01:55;;;;;;;14.40;7.53;;;7.80;49.60;;;;;;5031932;28;20029;-73
2023/03/06 06:04:22;;;;;;;20.27;8.60;;;7.80;49.50;;;;;;5048175;28;20036;-73
2023/03/06 06:06:56;;;;;;;20.90;9.38;;;7.80;49.50;;;;;;5053003;28;20018;-73
2023/03/06 06:09:22;;;;;;;;;;;7.80;49.50;;;;;;5064717;28;20051;-73
2023/03/06 06:11:56;;;;;;;16.33;7.68;;;7.80;49.40;;;;;;5072730;28;19905;-74
2023/03/06 06:14:22;;;;;;;;;;;7.90;49.40;;;;;;5073974;28;20462;-74
2023/03/06 06:16:50;;;;;;;23.27;7.97;;;7.90;49.40;;;;;;5072656;28;19904;-73
2023/03/06 06:19:19;;;;;;;19.50;7.78;;;7.90;49.40;;;;;;5072611;28;20086;-74
2023/03/06 06:21:51;;;;;;;20.20;9.13;;;7.90;49.40;;;;;;5072582;28;20413;-74
2023/03/06 06:24:19;;;;;;;20.42;8.73;;;7.90;49.50;;;;;;5071432;28;20538;-74
2023/03/06 06:26:45;;;;;;;14.50;7.88;;;7.90;49.50;;;;;;5072389;28;20492;-73
2023/03/06 06:29:12;;;;;;;17.95;8.93;;;7.90;49.40;;;;;;5072939;28;20016;-74
2023/03/06 06:31:39;;;;;;;16.00;8.18;;;8.00;50.00;;;;;;5070765;28;20397;-74
2023/03/06 06:34:06;;;;;;;19.88;9.13;;;8.00;49.40;;;;;;5070311;28;20043;-74
2023/03/06 06:36:33;;;;;;;24.30;9.20;;;8.00;50.00;;;;;;5072846;28;20040;-74
2023/03/06 06:38:59;;;;;;;16.45;8.73;;;8.00;49.30;;;;;;5064452;28;20032;-74
2023/03/06 06:41:25;;;;;;;20.85;9.48;;;8.10;49.40;;;;;;5072359;28;20025;-74
2023/03/06 06:43:51;;;;;;;20.63;9.57;;;8.10;49.50;;;;;;5072736;28;20017;-74
2023/03/06 06:46:18;;;;;;;24.23;9.85;;;8.10;49.10;;;;;;5072483;28;20031;-74
2023/03/06 06:48:48;;;;;;;26.67;10.38;;;8.10;49.10;;;;;;5072475;28;20024;-73
2023/03/06 06:51:15;;;;;;;19.83;8.95;;;8.10;49.10;;;;;;5072503;28;20020;-74
2023/03/06 06:53:40;;;;;;;21.90;8.85;;;8.00;49.00;;;;;;5073511;28;20056;-74
2023/03/06 06:56:06;;;;;;;18.15;9.82;;;8.00;49.00;;;;;;5076467;28;20060;-74
2023/03/06 06:58:32;;;;;;;17.02;8.13;;;7.90;48.90;;;;;;5076066;28;20032;-74
2023/03/06 07:01:07;;;;;;;19.63;9.27;;;8.00;48.90;;;;;;5075534;28;20033;-74
2023/03/06 07:03:33;;;;;;;27.20;10.32;;;8.00;48.90;;;;;;5075723;28;20130;-74
2023/03/06 07:06:00;;;;;;;89.13;14.80;;;8.00;49.10;;;;;;5074270;28;20032;-74
2023/03/06 07:08:26;;;;;;;23.50;9.68;;;8.00;49.10;;;;;;5070565;28;20040;-74
2023/03/06 07:10:52;;;;;;;20.15;10.07;;;8.00;49.10;;;;;;5057686;28;20045;-73
2023/03/06 07:13:18;;;;;;;21.15;9.50;;;8.00;49.10;;;;;;5054478;28;20029;-74
2023/03/06 07:15:43;;;;;;;23.55;9.77;;;8.00;49.10;;;;;;5055740;28;20029;-74
2023/03/06 07:18:09;;;;;;;18.10;9.70;;;8.00;49.10;;;;;;5070930;28;20051;-74
2023/03/06 07:20:35;;;;;;;18.90;9.73;;;8.10;49.00;;;;;;5055885;28;20029;-74
2023/03/06 07:23:01;;;;;;;25.80;9.00;;;8.10;48.90;;;;;;5055080;28;20374;-74
2023/03/06 07:25:27;;;;;;;19.65;8.77;;;8.10;48.80;;;;;;5054401;28;20021;-74
2023/03/06 07:27:53;;;;;;;17.98;9.18;;;8.20;48.50;;;;;;5055560;28;20025;-74
2023/03/06 07:30:20;;;;;;;23.38;9.52;;;8.20;48.50;;;;;;5055092;28;20021;-74
2023/03/06 07:32:46;;;;;;;19.83;8.40;;;8.30;48.30;;;;;;5055783;28;20033;-74
2023/03/06 07:35:16;;;;;;;26.67;10.95;;;8.30;48.40;;;;;;5070147;28;20031;-74
2023/03/06 07:37:42;;;;;;;21.15;8.15;;;8.40;48.20;;;;;;5075648;28;20028;-74
2023/03/06 07:40:09;;;;;;;18.83;8.75;;;8.50;48.10;;;;;;5075517;28;20386;-74
2023/03/06 07:42:35;;;;;;;18.35;9.18;;;8.60;47.90;;;;;;5075308;28;20025;-74
2023/03/06 07:45:02;;;;;;;17.83;8.90;;;8.70;47.50;;;;;;5074208;28;20130;-74
2023/03/06 07:47:28;;;;;;;18.02;8.40;;;8.80;47.50;;;;;;5075448;28;20048;-74
2023/03/06 07:49:58;;;;;;;17.58;7.45;;;8.90;47.70;;;;;;5075506;28;20571;-74
2023/03/06 07:52:24;;;;;;;14.35;7.72;;;9.00;47.70;;;;;;5074444;28;20054;-74
2023/03/06 07:54:50;;;;;;;15.50;7.85;;;9.20;47.60;;;;;;5072372;28;20077;-74
2023/03/06 07:57:16;;;;;;;14.70;7.70;;;9.30;47.40;;;;;;5074928;28;20029;-74
2023/03/06 07:59:42;;;;;;;21.15;9.77;;;9.50;47.30;;;;;;5075180;28;20020;-74
2023/03/06 08:02:10;;;;;;;16.25;8.45;;;9.50;46.30;;;;;;5074955;28;20405;-74
2023/03/06 08:04:36;;;;;;;17.20;8.65;;;9.60;46.40;;;;;;5074349;28;20028;-75
2023/03/06 08:07:02;;;;;;;17.88;7.97;;;9.70;46.60;;;;;;5051579;28;20347;-74
2023/03/06 08:09:28;;;;;;;16.23;8.27;;;9.80;46.70;;;;;;5054833;28;20143;-74
2023/03/06 08:11:54;;;;;;;16.20;8.43;;;9.90;46.60;;;;;;5054907;28;20082;-74
2023/03/06 08:14:20;;;;;;;18.75;8.63;;;10.00;46.50;;;;;;5057651;28;20029;-74
2023/03/06 08:16:48;;;;;;;17.33;9.32;;;10.10;46.50;;;;;;5074920;28;20028;-74
2023/03/06 08:19:14;;;;;;;25.70;10.13;;;10.20;46.40;;;;;;5074858;28;20112;-74
2023/03/06 08:21:41;;;;;;;18.98;9.38;;;10.30;46.10;;;;;;5074690;28;20021;-74
2023/03/06 08:24:07;;;;;;;18.88;9.18;;;10.40;46.00;;;;;;5074572;28;20481;-74
2023/03/06 08:26:33;;;;;;;22.10;10.10;;;10.50;46.40;;;;;;5073346;28;20036;-74
2023/03/06 08:29:00;;;;;;;26.25;9.82;;;10.60;45.60;;;;;;5074328;28;20033;-74
2023/03/06 08:31:32;;;;;;;21.17;9.50;;;10.70;45.50;;;;;;5074650;28;20033;-74
2023/03/06 08:34:00;;;;;;;23.17;10.25;;;10.80;45.50;;;;;;5073959;28;20021;-74
2023/03/06 08:36:27;;;;;;;18.98;9.52;;;10.90;45.10;;;;;;5057946;28;20032;-74
2023/03/06 08:38:53;;;;;;;23.40;9.95;;;11.00;45.00;;;;;;5074923;28;20154;-74
2023/03/06 08:41:19;;;;;;;17.55;9.15;;;11.10;44.60;;;;;;5073425;28;20020;-74
2023/03/06 08:43:45;;;;;;;19.50;10.77;;;11.20;44.60;;;;;;5074596;28;20017;-74
2023/03/06 08:46:11;;;;;;;19.17;10.30;;;11.20;44.60;;;;;;5074280;28;20016;-74
2023/03/06 08:48:37;;;;;;;22.17;10.38;;;11.30;44.40;;;;;;5073899;28;20330;-74
2023/03/06 08:51:03;;;;;;;22.08;10.82;;;11.40;44.20;;;;;;5072477;28;20029;-74
2023/03/06 08:53:29;;;;;;;25.08;10.48;;;11.50;43.50;;;;;;5074408;28;20020;-74
2023/03/06 08:55:55;;;;;;;18.67;10.85;;;11.50;43.50;;;;;;5074242;28;20036;-74
2023/03/06 08:58:21;;;;;;;26.23;11.93;;;11.60;43.50;;;;;;5073988;28;20025;-74
2023/03/06 09:00:47;;;;;;;23.00;11.40;;;11.70;43.20;;;;;;5073694;28;20115;-74
2023/03/06 09:03:13;;;;;;;19.98;10.95;;;11.80;43.00;;;;;;5073693;28;20012;-74
2023/03/06 09:05:40;;;;;;;22.77;10.90;;;11.90;42.50;;;;;;5073278;28;20031;-74
2023/03/06 09:08:06;;;;;;;26.45;10.68;;;12.00;42.50;;;;;;5071295;28;20095;-74
2023/03/06 09:10:31;;;;;;;21.15;11.68;;;12.00;42.30;;;;;;5068589;28;20052;-74
2023/03/06 09:12:57;;;;;;;19.05;10.27;;;12.10;41.80;;;;;;5072304;28;20430;-74
2023/03/06 09:15:23;;;;;;;21.98;11.50;;;12.10;42.30;;;;;;5073747;28;20024;-74
2023/03/06 09:17:50;;;;;;;22.38;10.93;;;12.10;41.70;;;;;;5072951;28;20024;-74
2023/03/06 09:20:17;;;;;;;21.17;11.10;;;12.20;41.70;;;;;;5073768;28;20163;-74
2023/03/06 09:22:44;;;;;;;22.98;11.60;;;12.20;41.60;;;;;;5073720;28;20025;-74
2023/03/06 09:25:12;;;;;;;22.13;11.27;;;12.30;41.40;;;;;;5072662;28;20013;-74
2023/03/06 09:27:39;;;;;;;23.33;11.25;;;12.30;41.40;;;;;;5073984;28;20016;-74
2023/03/06 09:30:06;;;;;;;21.60;10.88;;;12.40;41.40;;;;;;5073262;28;20028;-74
2023/03/06 09:32:32;;;;;;;35.47;13.20;;;12.50;41.30;;;;;;5072279;28;20032;-74
2023/03/06 09:34:58;;;;;;;22.60;11.68;;;12.50;41.30;;;;;;5073182;28;20027;-74
2023/03/06 09:37:24;;;;;;;30.40;12.20;;;12.50;41.10;;;;;;5036058;28;20490;-75
2023/03/06 09:39:50;;;;;;;24.90;12.38;;;12.60;41.00;;;;;;5052201;28;20025;-74
2023/03/06 09:42:19;;;;;;;22.80;11.93;;;12.60;41.00;;;;;;5053659;28;20040;-74
2023/03/06 09:44:55;;;;;;;23.23;11.63;;;12.70;40.50;;;;;;5058770;28;20408;-75
2023/03/06 09:47:45;;;;;;;25.15;11.70;;;12.80;40.40;;;;;;5071950;28;20020;-74
2023/03/06 09:50:20;;;;;;;20.48;11.80;;;12.80;40.20;;;;;;5071986;28;20021;-74
2023/03/06 09:52:58;;;;;;;23.17;11.90;;;12.90;40.20;;;;;;5072041;28;20105;-74
2023/03/06 09:55:26;;;;;;;19.17;11.05;;;13.00;40.10;;;;;;5073329;28;20474;-74
2023/03/06 09:58:03;;;;;;;28.58;12.13;;;13.00;39.50;;;;;;5072255;28;20043;-75
2023/03/06 10:00:49;;;;;;;30.33;13.88;;;13.00;39.20;;;;;;5073252;28;20082;-74
2023/03/06 10:03:40;;;;;;;27.05;12.10;;;13.00;38.40;;;;;;5072900;28;20031;-74
2023/03/06 10:06:25;;;;;;;30.45;11.50;;;13.00;38.60;;;;;;5073245;28;20497;-75
2023/03/06 10:09:15;;;;;;;25.33;11.43;;;12.90;38.70;;;;;;5068285;28;20072;-74
2023/03/06 10:11:47;;;;;;;28.05;12.43;;;13.00;38.90;;;;;;5073161;28;20033;-74
2023/03/06 10:14:22;;;;;;;25.50;11.52;;;13.00;38.50;;;;;;5073001;28;20025;-74
2023/03/06 10:16:48;;;;;;;32.38;11.63;;;13.00;38.80;;;;;;5073208;28;20052;-74
2023/03/06 10:19:16;;;;;;;25.90;11.57;;;13.00;38.80;;;;;;5073108;28;20028;-74
2023/03/06 10:21:57;;;;;;;22.80;12.00;;;13.00;38.80;;;;;;5073222;28;20480;-74
2023/03/06 10:24:25;;;;;;;21.10;11.45;;;13.00;38.50;;;;;;5071895;28;20367;-74
2023/03/06 10:27:13;;;;;;;33.25;13.00;;;13.00;38.90;;;;;;5072810;28;20028;-74
2023/03/06 10:29:51;;;;;;;23.40;11.82;;;13.10;38.50;;;;;;5069664;28;20484;-74
2023/03/06 10:32:57;;;;;;;17.77;9.75;;;13.10;38.40;;;;;;5076854;28;20059;-74
2023/03/06 10:35:50;;;;;;;21.42;10.80;;;13.10;38.80;;;;;;4995176;28;20052;-74
2023/03/06 10:38:28;;;;;;;21.45;11.25;;;13.20;38.80;;;;;;4995456;28;20026;-75
2023/03/06 10:41:12;;;;;;;21.58;11.18;;;13.20;38.40;;;;;;4995368;28;20145;-74
2023/03/06 10:43:44;;;;;;;20.60;10.95;;;13.40;38.60;;;;;;4995591;28;20030;-74
2023/03/06 10:46:13;;;;;;;25.63;11.98;;;13.50;38.40;;;;;;4995394;28;20109;-74
2023/03/06 10:48:41;;;;;;;21.40;11.35;;;13.60;38.40;;;;;;4995235;28;20046;-74
2023/03/06 10:51:22;;;;;;;19.40;11.93;;;13.70;38.40;;;;;;4995014;28;20110;-75
2023/03/06 10:53:50;;;;;;;22.60;11.57;;;13.80;37.30;;;;;;4995424;28;20511;-74
2023/03/06 10:56:36;;;;;;;22.13;12.18;;;13.90;37.80;;;;;;4995230;28;20130;-74
2023/03/06 10:59:13;;;;;;;32.92;11.77;;;14.00;37.50;;;;;;4995034;28;20042;-74
2023/03/06 11:01:47;;;;;;;24.60;12.02;;;14.10;37.00;;;;;;4995562;28;20034;-75
2023/03/06 11:04:31;;;;;;;24.58;12.00;;;14.10;36.60;;;;;;4994929;28;20030;-74
2023/03/06 11:07:17;;;;;;;26.35;11.48;;;14.20;36.40;;;;;;5047484;28;20051;-74
2023/03/06 11:09:58;;;;;;;22.35;10.73;;;14.20;36.50;;;;;;5056399;28;20037;-74
2023/03/06 11:12:33;;;;;;;30.95;11.38;;;14.20;36.40;;;;;;5056611;28;20048;-75
2023/03/06 11:15:16;;;;;;;26.17;11.63;;;14.20;36.50;;;;;;5066579;28;20047;-75
2023/03/06 11:18:03;;;;;;;30.80;13.15;;;14.20;36.10;;;;;;5075879;28;20099;-74
2023/03/06 11:20:41;;;;;;;27.98;12.65;;;14.10;36.30;;;;;;5075970;28;20052;-74
2023/03/06 11:23:15;;;;;;;20.52;11.85;;;14.10;36.60;;;;;;5075858;28;20024;-74
2023/03/06 11:25:49;;;;;;;;;;;14.10;36.40;;;;;;5076137;28;20016;-74
2023/03/06 11:28:27;;;;;;;26.38;12.68;;;14.00;36.90;;;;;;5074244;28;19909;-74
2023/03/06 11:31:19;;;;;;;21.55;11.32;;;13.90;36.20;;;;;;5075798;28;20545;-75
2023/03/06 11:33:50;;;;;;;22.60;11.88;;;13.90;36.50;;;;;;5075662;28;20032;-75
2023/03/06 11:36:25;;;;;;;21.75;11.63;;;13.80;36.60;;;;;;5075779;28;20035;-75
2023/03/06 11:38:53;;;;;;;29.48;12.75;;;13.70;37.00;;;;;;5070688;28;20021;-75
2023/03/06 11:41:24;;;;;;;25.75;13.48;;;13.70;37.00;;;;;;5073879;28;20025;-74
2023/03/06 11:44:05;;;;;;;25.95;12.68;;;13.70;36.90;;;;;;5070549;28;20091;-75
2023/03/06 11:46:39;;;;;;;23.42;12.70;;;13.60;36.90;;;;;;5056038;28;20023;-74
2023/03/06 11:49:44;;;;;;;24.35;13.15;;;13.70;37.20;;;;;;5075732;28;20381;-74
2023/03/06 11:52:17;;;;;;;21.02;11.90;;;13.70;37.10;;;;;;5055564;28;20029;-75
2023/03/06 11:54:55;;;;;;;30.43;12.63;;;13.70;37.20;;;;;;5055574;28;20031;-74
2023/03/06 11:58:00;;;;;;;23.10;13.15;;;13.80;37.40;;;;;;5053926;28;20275;-74
2023/03/06 12:00:37;;;;;;;;;;;13.80;37.30;;;;;;5063703;28;20066;-75
2023/03/06 12:03:45;;;;;;;26.17;12.63;;;13.80;37.90;;;;;;5074532;28;19908;-74
2023/03/06 12:06:59;;;;;;;26.88;13.85;;;13.90;37.10;;;;;;4997811;28;20126;-74
2023/03/06 12:09:52;;;;;;;26.58;13.25;;;13.80;37.00;;;;;;5029781;28;20102;-74
2023/03/06 12:12:18;;;;;;;28.23;14.23;;;13.80;36.90;;;;;;5074768;28;20036;-74
2023/03/06 12:15:21;;;;;;;25.20;13.40;;;13.60;36.80;;;;;;5075044;28;20031;-74
2023/03/06 12:18:13;;;;;;;21.55;11.80;;;13.60;37.10;;;;;;5074707;28;20032;-74
2023/03/06 12:20:41;;;;;;;26.58;12.93;;;13.60;37.40;;;;;;5074929;28;20060;-74
2023/03/06 12:23:35;;;;;;;22.75;12.30;;;13.50;37.20;;;;;;5074889;28;20024;-75
2023/03/06 12:26:23;;;;;;;25.38;13.48;;;13.50;37.40;;;;;;5067854;28;20036;-74
2023/03/06 12:29:07;;;;;;;26.20;12.38;;;13.50;37.30;;;;;;5074857;28;20021;-74
2023/03/06 12:31:50;;;;;;;24.13;13.15;;;13.50;37.50;;;;;;5074690;28;20032;-74
2023/03/06 12:34:37;;;;;;;28.77;12.70;;;13.50;37.40;;;;;;5074230;28;20107;-73
2023/03/06 12:37:27;;;;;;;23.67;12.90;;;13.50;37.60;;;;;;5074577;28;20028;-74
2023/03/06 12:40:20;;;;;;;21.45;11.80;;;13.50;37.50;;;;;;5074500;28;20107;-74
2023/03/06 12:42:58;;;;;;;29.20;13.52;;;13.60;37.60;;;;;;5074304;28;20032;-74
2023/03/06 12:45:35;;;;;;;27.77;13.13;;;13.60;37.60;;;;;;5074219;28;20104;-74
2023/03/06 12:48:03;;;;;;;24.65;13.95;;;13.60;37.30;;;;;;5070644;28;20020;-74
2023/03/06 12:50:32;;;;;;;35.17;14.93;;;13.60;37.50;;;;;;5074747;28;20095;-74
2023/03/06 12:53:30;;;;;;;27.00;13.98;;;13.60;37.10;;;;;;5072792;28;20535;-74
2023/03/06 12:55:58;;;;;;;25.80;13.35;;;13.60;37.00;;;;;;5074074;28;20131;-74
2023/03/06 12:58:27;;;;;;;24.15;12.63;;;13.70;37.40;;;;;;5072430;28;20104;-74